Time;durP1;ratioP1;P1;durP2;ratioP2;P2;SDS_P1;SDS_P2;PMS_P1;PMS_P2;Temp;Humidity;BMP_temperature;BMP_pressure;BME280_temperature;BME280_humidity;BME280_pressure;Samples;Min_cycle;Max_cycle;Signal;HPM_P1;HPM_P2
2022/03/21 00:02:07;;;;;;;38.83;22.40;;;;;;;4.72;100.00;161802.13;5050373;28;20045;-61
2022/03/21 00:04:32;;;;;;;41.28;21.27;;;;;;;4.73;100.00;161803.44;5052429;28;20033;-61
2022/03/21 00:06:57;;;;;;;29.58;20.25;;;;;;;4.68;100.00;161791.34;5067789;28;20044;-61
2022/03/21 00:09:23;;;;;;;35.88;21.50;;;;;;;4.57;100.00;161761.78;5066825;28;20107;-61
2022/03/21 00:11:50;;;;;;;32.90;21.33;;;;;;;4.52;100.00;161748.31;5069921;28;20404;-60
2022/03/21 00:14:16;;;;;;;31.92;22.45;;;;;;;4.51;100.00;161746.97;5070809;28;20070;-61
2022/03/21 00:16:42;;;;;;;38.42;23.70;;;;;;;4.52;100.00;161749.66;5070384;28;20037;-61
2022/03/21 00:19:07;;;;;;;31.75;20.65;;;;;;;4.55;100.00;161756.38;5065981;28;20025;-61
2022/03/21 00:21:34;;;;;;;38.70;23.30;;;;;;;4.57;100.00;161761.78;5061703;28;20036;-61
2022/03/21 00:24:00;;;;;;;35.30;23.50;;;;;;;4.57;100.00;161761.78;5068487;28;20498;-61
2022/03/21 00:26:26;;;;;;;32.20;23.95;;;;;;;4.50;100.00;161742.97;5059808;28;20037;-61
2022/03/21 00:28:51;;;;;;;40.42;21.98;;;;;;;4.51;100.00;161745.59;5062523;28;20622;-61
2022/03/21 00:31:16;;;;;;;35.83;23.65;;;;;;;4.50;100.00;161742.97;5069954;28;20032;-60
2022/03/21 00:33:42;;;;;;;31.75;22.08;;;;;;;4.62;100.00;161775.22;5071585;28;20070;-60
2022/03/21 00:36:08;;;;;;;40.30;27.02;;;;;;;4.58;100.00;161765.81;5051012;28;20142;-61
2022/03/21 00:38:37;;;;;;;35.00;24.50;;;;;;;4.49;100.00;161740.25;5051798;28;20036;-61
2022/03/21 00:41:04;;;;;;;32.50;22.02;;;;;;;4.46;100.00;161733.56;5050274;28;20028;-61
2022/03/21 00:43:30;;;;;;;35.08;24.92;;;;;;;4.44;100.00;161729.47;5050941;28;20009;-60
2022/03/21 00:45:57;;;;;;;43.80;27.88;;;;;;;4.44;100.00;161729.47;5067898;28;20031;-60
2022/03/21 00:48:24;;;;;;;41.17;26.10;;;;;;;4.38;100.00;161712.03;5069543;28;20399;-60
2022/03/21 00:50:49;;;;;;;36.33;24.67;;;;;;;4.48;100.00;161737.56;5053194;28;20035;-60
2022/03/21 00:53:18;;;;;;;35.92;22.95;;;;;;;4.52;100.00;161749.66;5064755;28;20044;-60
2022/03/21 00:55:46;;;;;;;42.95;26.35;;;;;;;4.51;100.00;161745.59;5066871;28;20427;-60
2022/03/21 00:58:11;;;;;;;39.65;26.10;;;;;;;4.47;100.00;161734.88;5049250;28;20118;-60
2022/03/21 01:00:37;;;;;;;40.97;26.20;;;;;;;4.33;100.00;161699.94;5051239;28;20452;-60
2022/03/21 01:03:03;;;;;;;50.17;25.85;;;;;;;4.38;100.00;161713.34;5052360;28;20049;-60
2022/03/21 01:05:29;;;;;;;40.42;24.77;;;;;;;4.52;100.00;161748.31;5062850;28;20032;-60
2022/03/21 01:07:56;;;;;;;44.75;27.70;;;;;;;4.40;100.00;161717.38;5069669;28;20043;-60
2022/03/21 01:10:22;;;;;;;50.50;27.13;;;;;;;4.37;100.00;161710.66;5071096;28;20112;-60
2022/03/21 01:12:49;;;;;;;50.38;26.23;;;;;;;4.34;100.00;161701.25;5069299;28;20088;-61
2022/03/21 01:15:16;;;;;;;41.83;27.02;;;;;;;4.32;100.00;161697.22;5060190;28;20036;-61
2022/03/21 01:17:43;;;;;;;37.65;24.77;;;;;;;4.38;100.00;161713.34;5049581;28;20125;-60
2022/03/21 01:20:09;;;;;;;46.03;26.20;;;;;;;4.42;100.00;161724.13;5054486;28;20029;-60
2022/03/21 01:22:35;;;;;;;46.05;27.95;;;;;;;4.42;100.00;161724.13;5049545;28;20045;-60
2022/03/21 01:25:00;;;;;;;45.35;26.85;;;;;;;4.47;100.00;161734.88;5050935;28;20392;-60
2022/03/21 01:27:26;;;;;;;48.67;27.58;;;;;;;4.41;100.00;161720.06;5066831;28;20044;-60
2022/03/21 01:29:51;;;;;;;51.13;27.05;;;;;;;4.36;100.00;161706.66;5062866;28;20404;-60
2022/03/21 01:32:17;;;;;;;49.80;29.80;;;;;;;4.31;100.00;161694.53;5049225;28;20095;-60
2022/03/21 01:34:42;;;;;;;46.30;29.63;;;;;;;4.39;100.00;161716.06;5062129;28;20065;-60
2022/03/21 01:37:07;;;;;;;47.72;30.23;;;;;;;4.38;100.00;161712.03;5073187;28;20537;-60
2022/03/21 01:39:33;;;;;;;44.83;27.08;;;;;;;4.38;100.00;161712.03;5070919;28;20021;-60
2022/03/21 01:41:58;;;;;;;45.17;27.17;;;;;;;4.32;100.00;161697.22;5053524;28;20037;-60
2022/03/21 01:44:24;;;;;;;51.88;28.67;;;;;;;4.32;100.00;161697.22;5054906;28;20021;-60
2022/03/21 01:46:49;;;;;;;50.33;30.27;;;;;;;4.29;100.00;161690.53;5073181;28;20029;-61
2022/03/21 01:49:15;;;;;;;48.53;28.38;;;;;;;4.26;100.00;161681.13;5070012;28;20476;-60
2022/03/21 01:51:41;;;;;;;51.50;28.42;;;;;;;4.22;100.00;161671.69;5065275;28;20032;-61
2022/03/21 01:56:52;;;;;;;55.67;31.13;;;;;;;4.28;100.00;161686.50;5060278;28;20519;-61
2022/03/21 01:59:19;;;;;;;51.17;27.30;;;;;;;4.32;100.00;161697.22;5053751;28;20056;-61
2022/03/21 02:01:44;;;;;;;47.95;27.95;;;;;;;4.27;100.00;161685.13;5053155;28;20050;-61
2022/03/21 02:04:10;;;;;;;46.50;28.25;;;;;;;4.20;100.00;161666.31;5066330;28;20029;-61
2022/03/21 02:06:36;;;;;;;57.17;30.10;;;;;;;4.18;100.00;161659.59;5056220;28;20063;-61
2022/03/21 02:09:05;;;;;;;41.22;26.73;;;;;;;4.22;100.00;161670.34;5054516;28;20051;-61
2022/03/21 02:11:30;;;;;;;49.92;29.75;;;;;;;4.22;100.00;161670.34;5073269;28;20032;-61
2022/03/21 02:13:58;;;;;;;47.83;26.23;;;;;;;4.23;100.00;161674.41;5073870;28;20052;-61
2022/03/21 02:16:25;;;;;;;50.25;30.00;;;;;;;4.25;100.00;161678.41;5072311;28;20495;-62
2022/03/21 02:18:51;;;;;;;62.17;31.52;;;;;;;4.26;100.00;161681.13;5061890;28;20039;-62
2022/03/21 02:21:23;;;;;;;48.47;29.92;;;;;;;4.17;100.00;161656.91;5053107;28;20035;-62
2022/03/21 02:23:56;;;;;;;51.45;31.50;;;;;;;4.09;100.00;161638.09;5054211;28;20028;-62
2022/03/21 02:26:24;;;;;;;64.90;30.70;;;;;;;4.24;100.00;161675.72;5052547;28;20083;-61
2022/03/21 02:28:50;;;;;;;43.70;29.00;;;;;;;4.18;100.00;161659.59;5053536;28;20032;-61
2022/03/21 02:31:16;;;;;;;41.80;25.40;;;;;;;4.17;100.00;161656.91;5052447;28;20024;-61
2022/03/21 02:33:41;;;;;;;35.97;24.58;;;;;;;3.99;100.00;161611.19;5062767;28;20028;-61
2022/03/21 02:36:08;;;;;;;51.95;27.70;;;;;;;3.87;100.00;161578.97;5065897;28;20025;-61
2022/03/21 02:38:33;;;;;;;49.25;30.10;;;;;;;3.77;100.00;161554.75;5064547;28;20451;-61
2022/03/21 02:40:59;;;;;;;43.25;27.77;;;;;;;3.67;100.00;161527.91;5073794;28;20107;-61
2022/03/21 02:43:24;;;;;;;52.10;29.70;;;;;;;3.64;100.00;161521.22;5071663;28;20044;-61
2022/03/21 02:45:50;;;;;;;56.40;29.23;;;;;;;3.61;100.00;161511.81;5071137;28;20029;-62
2022/03/21 02:48:16;;;;;;;41.13;23.38;;;;;;;3.44;100.00;161467.44;5070181;28;20040;-61
2022/03/21 02:50:52;;;;;;;39.83;23.05;;;;;;;3.34;100.00;161441.91;5060060;28;20491;-61
2022/03/21 02:53:20;;;;;;;39.78;24.63;;;;;;;3.21;100.00;161408.31;5064315;28;20557;-60
2022/03/21 02:55:45;;;;;;;49.55;28.25;;;;;;;3.00;100.00;161353.28;5073290;28;20563;-60
2022/03/21 02:58:10;;;;;;;80.63;30.85;;;;;;;3.13;100.00;161388.19;5060623;28;20041;-60
2022/03/21 03:00:36;;;;;;;139.90;31.33;;;;;;;3.10;100.00;161380.13;5054641;28;20530;-60
2022/03/21 03:03:01;;;;;;;47.67;28.17;;;;;;;3.15;100.00;161392.22;5069579;28;20052;-60
2022/03/21 03:05:27;;;;;;;66.85;28.92;;;;;;;3.17;100.00;161398.91;5052509;28;20028;-60
2022/03/21 03:07:52;;;;;;;86.15;28.70;;;;;;;3.16;100.00;161394.91;5051753;28;20040;-60
2022/03/21 03:10:17;;;;;;;42.72;26.90;;;;;;;3.15;100.00;161392.22;5053236;28;20017;-60
2022/03/21 03:12:43;;;;;;;27.23;19.83;;;;;;;3.13;100.00;161388.19;5050954;28;20045;-60
2022/03/21 03:15:08;;;;;;;26.35;19.35;;;;;;;3.10;100.00;161380.13;5052873;28;20033;-61
2022/03/21 03:17:34;;;;;;;35.53;22.15;;;;;;;3.11;100.00;161381.50;5055003;28;20032;-61
2022/03/21 03:19:59;;;;;;;38.35;22.20;;;;;;;3.15;100.00;161393.59;5066696;28;20043;-59
2022/03/21 03:22:26;;;;;;;31.90;20.45;;;;;;;3.16;100.00;161396.22;5066014;28;20037;-59
2022/03/21 03:24:52;;;;;;;31.65;22.52;;;;;;;3.01;100.00;161355.97;5052866;28;20053;-60
2022/03/21 03:27:17;;;;;;;35.47;22.30;;;;;;;3.18;100.00;161401.63;5051030;28;20488;-59
2022/03/21 03:29:43;;;;;;;32.38;23.35;;;;;;;3.21;100.00;161407.00;5052842;28;20029;-60
2022/03/21 03:32:08;;;;;;;34.92;22.73;;;;;;;3.25;100.00;161419.09;5049787;28;20064;-60
2022/03/21 03:34:35;;;;;;;32.65;21.95;;;;;;;3.26;100.00;161420.41;5062803;28;20047;-60
2022/03/21 03:37:00;;;;;;;38.75;24.70;;;;;;;3.28;100.00;161425.81;5057630;28;20125;-60
2022/03/21 03:39:26;;;;;;;37.03;22.90;;;;;;;3.29;100.00;161428.50;5052390;28;20060;-60
2022/03/21 03:41:51;;;;;;;32.75;19.73;;;;;;;3.30;100.00;161432.50;5056358;28;20041;-60
2022/03/21 03:44:17;;;;;;;40.03;24.65;;;;;;;3.32;100.00;161436.53;5052316;28;20021;-60
2022/03/21 03:46:44;;;;;;;51.40;27.83;;;;;;;3.36;100.00;161447.31;5051338;28;20043;-60
2022/03/21 03:49:09;;;;;;;46.08;26.45;;;;;;;3.41;100.00;161459.41;5066679;28;20064;-60
2022/03/21 03:51:34;;;;;;;36.42;22.85;;;;;;;3.40;100.00;161456.69;5064603;28;20033;-60
2022/03/21 03:54:00;;;;;;;48.90;23.50;;;;;;;3.35;100.00;161443.28;5052576;28;20021;-60
2022/03/21 03:56:25;;;;;;;39.88;25.42;;;;;;;3.30;100.00;161431.19;5049925;28;20044;-58
2022/03/21 03:58:51;;;;;;;43.33;23.17;;;;;;;3.21;100.00;161407.00;5052509;28;20024;-59
2022/03/21 04:01:16;;;;;;;96.65;26.58;;;;;;;3.09;100.00;161377.44;5050552;28;20021;-59
2022/03/21 04:03:44;;;;;;;93.20;21.98;;;;;;;2.99;100.00;161350.59;5071136;28;20113;-59
2022/03/21 04:06:10;;;;;;;41.42;23.75;;;;;;;2.85;100.00;161315.69;5070686;28;20031;-58
2022/03/21 04:08:35;;;;;;;31.40;18.58;;;;;;;2.74;100.00;161286.13;5052839;28;20400;-59
2022/03/21 04:11:01;;;;;;;32.40;21.38;;;;;;;2.63;100.00;161256.59;5053530;28;20804;-59
2022/03/21 04:13:26;;;;;;;38.35;20.90;;;;;;;2.52;100.00;161228.41;5066072;28;20044;-60
2022/03/21 04:15:52;;;;;;;62.10;29.27;;;;;;;2.45;100.00;161210.94;5071800;28;20679;-60
2022/03/21 04:18:17;;;;;;;39.53;25.02;;;;;;;2.38;100.00;161192.16;5061796;28;20118;-60
2022/03/21 04:20:42;;;;;;;41.63;24.65;;;;;;;2.30;100.00;161170.66;5052005;28;20025;-60
2022/03/21 04:23:09;;;;;;;33.55;22.75;;;;;;;2.20;100.00;161146.50;5061188;28;20052;-60
2022/03/21 04:25:35;;;;;;;48.15;23.75;;;;;;;2.13;100.00;161127.72;5071351;28;20029;-60
2022/03/21 04:28:07;;;;;;;38.08;24.55;;;;;;;2.05;100.00;161107.59;5051016;28;20045;-60
2022/03/21 04:30:32;;;;;;;47.50;23.08;;;;;;;2.00;100.00;161092.81;5061108;28;20024;-60
2022/03/21 04:32:58;;;;;;;75.88;21.88;;;;;;;1.94;100.00;161076.72;5055749;28;20488;-60
2022/03/21 04:35:23;;;;;;;45.40;23.58;;;;;;;1.87;100.00;161060.63;5051347;28;20033;-60
2022/03/21 04:37:48;;;;;;;42.60;24.98;;;;;;;1.93;100.00;161074.03;5055262;28;20041;-60
2022/03/21 04:40:14;;;;;;;51.25;31.63;;;;;;;2.06;100.00;161108.91;5070950;28;20033;-60
2022/03/21 04:42:40;;;;;;;68.15;32.30;;;;;;;2.09;100.00;161117.00;5070084;28;20042;-60
2022/03/21 04:45:06;;;;;;;52.25;28.23;;;;;;;2.02;100.00;161098.19;5069135;28;20475;-60
2022/03/21 04:47:33;;;;;;;57.00;35.55;;;;;;;2.08;100.00;161114.31;5053275;28;20105;-60
2022/03/21 04:49:59;;;;;;;55.88;34.75;;;;;;;2.03;100.00;161100.91;5071202;28;20020;-60
2022/03/21 04:52:25;;;;;;;52.25;31.27;;;;;;;2.01;100.00;161095.50;5069591;28;20040;-60
2022/03/21 04:54:50;;;;;;;80.05;28.83;;;;;;;2.02;100.00;161099.53;5070944;28;20039;-60
2022/03/21 04:57:20;;;;;;;44.85;26.30;;;;;;;1.97;100.00;161084.81;5069526;28;20040;-60
2022/03/21 04:59:45;;;;;;;64.15;34.03;;;;;;;1.93;100.00;161074.03;5067359;28;20039;-60
2022/03/21 05:02:11;;;;;;;69.03;34.75;;;;;;;1.85;100.00;161055.25;5066211;28;20048;-59
2022/03/21 05:04:37;;;;;;;78.75;29.52;;;;;;;1.75;100.00;161028.38;5051048;28;20029;-60
2022/03/21 05:07:02;;;;;;;297.55;30.30;;;;;;;1.65;100.00;161001.59;5049974;28;20033;-59
2022/03/21 05:09:28;;;;;;;205.48;24.67;;;;;;;1.37;100.00;160929.16;5067811;28;20021;-60
2022/03/21 05:11:53;;;;;;;227.30;28.73;;;;;;;1.24;100.00;160895.63;5068160;28;20048;-58
2022/03/21 05:14:19;;;;;;;47.38;19.58;;;;;;;1.08;100.00;160854.06;5054940;28;20035;-56
2022/03/21 05:16:46;;;;;;;31.52;22.73;;;;;;;0.99;100.00;160829.91;5050963;28;20102;-58
2022/03/21 05:19:12;;;;;;;115.47;23.38;;;;;;;0.92;100.00;160813.81;5049507;28;20017;-59
2022/03/21 05:21:38;;;;;;;250.00;30.17;;;;;;;0.85;100.00;160795.03;5048740;28;20044;-58
2022/03/21 05:32:16;;;;;;;41.42;21.15;;;;;;;0.37;100.00;160669.00;5058165;28;20079;-58
2022/03/21 05:37:25;;;;;;;68.88;22.88;;;;;;;0.39;100.00;160675.69;5062383;28;20052;-58
2022/03/21 05:42:34;;;;;;;41.63;20.75;;;;;;;0.43;100.00;160685.06;5058467;28;20040;-58
2022/03/21 05:45:00;;;;;;;40.42;22.20;;;;;;;0.45;100.00;160690.44;5070866;28;20016;-57
2022/03/21 05:47:25;;;;;;;46.80;25.00;;;;;;;0.48;100.00;160698.50;5067619;28;20062;-57
2022/03/21 05:49:51;;;;;;;62.42;22.45;;;;;;;0.47;100.00;160695.81;5058930;28;20017;-58
2022/03/21 05:52:17;;;;;;;194.98;28.80;;;;;;;0.48;100.00;160698.50;5057169;28;20407;-58
2022/03/21 05:54:43;;;;;;;80.32;22.95;;;;;;;0.49;100.00;160701.16;5060146;28;20036;-57
2022/03/21 05:57:08;;;;;;;220.60;28.90;;;;;;;0.43;100.00;160686.44;5056198;28;20013;-58
2022/03/21 06:02:18;;;;;;;217.85;24.13;;;;;;;0.42;100.00;160682.38;5059654;28;20099;-57
2022/03/21 06:04:43;;;;;;;198.15;27.83;;;;;;;0.36;100.00;160667.69;5059848;28;20032;-57
2022/03/21 06:07:10;;;;;;;68.60;18.95;;;;;;;0.35;100.00;160663.63;5059527;28;20029;-57
2022/03/21 06:09:35;;;;;;;29.48;17.13;;;;;;;0.33;100.00;160658.28;5059168;28;20100;-57
2022/03/21 06:12:01;;;;;;;37.92;22.50;;;;;;;0.44;100.00;160687.75;5060255;28;20025;-58
2022/03/21 06:14:26;;;;;;;38.05;23.85;;;;;;;0.48;100.00;160698.50;5058877;28;20130;-58
2022/03/21 06:16:51;;;;;;;30.92;20.52;;;;;;;0.54;100.00;160713.22;5060893;28;20464;-58
2022/03/21 06:19:18;;;;;;;38.90;19.20;;;;;;;0.59;100.00;160726.66;5060083;28;20373;-59
2022/03/21 06:21:43;;;;;;;27.08;19.00;;;;;;;0.62;100.00;160734.69;5063777;28;20021;-57
2022/03/21 06:24:12;;;;;;;25.38;19.40;;;;;;;0.63;100.00;160738.69;5060557;28;20451;-58
2022/03/21 06:26:38;;;;;;;116.00;21.75;;;;;;;0.71;100.00;160757.50;5064094;28;20016;-59
2022/03/21 06:29:04;;;;;;;31.42;19.13;;;;;;;0.74;100.00;160766.88;5061906;28;20048;-56
2022/03/21 06:31:30;;;;;;;40.80;22.67;;;;;;;0.79;100.00;160780.28;5062421;28;20021;-58
2022/03/21 06:33:55;;;;;;;47.75;25.33;;;;;;;0.85;100.00;160795.03;5062684;28;20036;-57
2022/03/21 06:36:20;;;;;;;41.67;25.13;;;;;;;0.94;100.00;160819.16;5062896;28;20028;-55
2022/03/21 06:38:46;;;;;;;50.80;26.27;;;;;;;1.08;100.00;160854.06;5060636;28;20029;-55
2022/03/21 06:41:11;;;;;;;47.95;28.27;;;;;;;1.23;100.00;160894.25;5063900;28;20415;-55
2022/03/21 06:43:37;;;;;;;50.67;30.25;;;;;;;1.37;100.00;160930.47;5061197;28;20098;-55
2022/03/21 06:46:02;;;;;;;47.00;30.65;;;;;;;1.51;100.00;160965.34;5062804;28;20036;-55
2022/03/21 06:48:27;;;;;;;53.85;32.17;;;;;;;1.66;100.00;161004.28;5062279;28;20473;-55
2022/03/21 06:50:55;;;;;;;52.80;34.50;;;;;;;1.80;100.00;161040.47;5061893;28;20029;-55
2022/03/21 06:53:22;;;;;;;55.38;33.58;;;;;;;1.97;100.00;161084.81;5061089;28;20066;-56
2022/03/21 06:55:47;;;;;;;54.67;29.77;;;;;;;2.09;100.00;161115.63;5063952;28;20440;-55
2022/03/21 06:58:14;;;;;;;97.90;34.03;;;;;;;2.33;100.00;161178.75;5061425;28;20204;-55
2022/03/21 07:00:40;;;;;;;61.83;34.33;;;;;;;2.44;100.00;161208.25;5062661;28;20017;-55
2022/03/21 07:03:07;;;;;;;68.47;33.65;;;;;;;2.58;100.00;161243.16;5060073;28;20401;-55
2022/03/21 07:05:33;;;;;;;76.45;41.40;;;;;;;2.76;100.00;161291.50;5063675;28;20020;-55
2022/03/21 07:07:58;;;;;;;94.05;48.58;;;;;;;2.98;100.00;161349.22;5064008;28;20040;-56
2022/03/21 07:10:23;;;;;;;86.97;47.75;;;;;;;3.22;100.00;161409.69;5069999;28;20035;-56
2022/03/21 07:12:49;;;;;;;110.72;51.72;;;;;;;3.42;100.00;161463.41;5071717;28;20033;-56
2022/03/21 07:15:15;;;;;;;117.20;58.33;;;;;;;3.65;100.00;161523.84;5072788;28;20450;-55
2022/03/21 07:17:42;;;;;;;107.75;62.53;;;;;;;3.90;100.00;161588.38;5071180;28;20048;-55
2022/03/21 07:20:10;;;;;;;106.57;58.70;;;;;;;4.17;100.00;161656.91;5072731;28;20028;-55
2022/03/21 07:22:35;;;;;;;107.45;62.67;;;;;;;4.41;100.00;161721.44;5071054;28;20037;-55
2022/03/21 07:25:00;;;;;;;98.18;55.47;;;;;;;4.68;100.00;161791.34;5071273;28;20384;-55
2022/03/21 07:27:26;;;;;;;103.65;58.38;;;;;;;4.86;100.00;161838.41;5070347;28;20179;-55
2022/03/21 07:29:51;;;;;;;101.72;56.08;;;;;;;5.05;100.00;161888.16;5072780;28;20020;-55
2022/03/21 07:32:17;;;;;;;91.50;54.08;;;;;;;5.25;100.00;161939.25;5061543;28;20047;-55
2022/03/21 07:34:43;;;;;;;77.47;50.88;;;;;;;5.51;100.00;162007.84;5067749;28;20029;-55
2022/03/21 07:37:08;;;;;;;67.53;47.45;;;;;;;5.71;100.00;162060.34;5050894;28;20021;-55
2022/03/21 07:39:35;;;;;;;73.93;49.53;;;;;;;5.94;100.00;162119.53;5069905;28;20040;-55
2022/03/21 07:42:01;;;;;;;66.30;40.28;;;;;;;6.19;100.00;162184.22;5070905;28;20391;-57
2022/03/21 07:47:20;;;;;;;64.28;42.45;;;;;;;6.85;100.00;162355.19;5069995;28;20102;-55
2022/03/21 07:49:46;;;;;;;50.70;36.60;;;;;;;7.19;100.00;162445.38;5071357;28;20059;-55
2022/03/21 07:52:18;;;;;;;41.30;30.20;;;;;;;7.75;100.00;162592.22;5052758;28;20025;-55
2022/03/21 07:54:43;;;;;;;39.78;33.58;;;;;;;8.42;100.00;162766.09;5071136;28;20032;-55
2022/03/21 07:57:08;;;;;;;34.90;28.85;;;;;;;9.24;100.00;162979.16;5070318;28;20028;-55
2022/03/21 07:59:34;;;;;;;33.78;26.60;;;;;;;9.96;100.00;163169.38;5071986;28;20082;-55
2022/03/21 08:01:59;;;;;;;32.40;25.40;;;;;;;10.84;100.00;163397.47;5070246;28;20102;-55
2022/03/21 08:04:25;;;;;;;32.58;25.95;;;;;;;11.62;100.00;163601.38;5072133;28;20013;-55
2022/03/21 08:06:53;;;;;;;36.97;24.38;;;;;;;11.94;100.00;163686.50;5071467;28;20038;-55
2022/03/21 08:09:18;;;;;;;30.83;23.55;;;;;;;12.89;100.00;163935.19;5069965;28;20516;-55
2022/03/21 08:11:45;;;;;;;30.67;21.83;;;;;;;12.77;100.00;163902.75;5071736;28;20056;-56
2022/03/21 08:14:11;;;;;;;26.15;21.70;;;;;;;13.16;100.00;164005.47;5070009;28;20029;-56
2022/03/21 08:16:37;;;;;;;29.38;23.50;;;;;;;12.58;100.00;163854.09;5071584;28;20058;-56
2022/03/21 08:19:02;;;;;;;35.75;22.98;;;;;;;12.94;100.00;163948.69;5070306;28;20509;-56
2022/03/21 08:21:27;;;;;;;30.27;22.95;;;;;;;13.15;100.00;164002.75;5071383;28;20024;-56
2022/03/21 08:23:53;;;;;;;32.30;22.13;;;;;;;13.24;100.00;164027.09;5069990;28;20074;-56
2022/03/21 08:26:18;;;;;;;29.42;22.88;;;;;;;13.69;100.00;164143.44;5051630;28;20024;-56
2022/03/21 08:28:45;;;;;;;29.00;22.52;;;;;;;14.46;100.00;164346.34;5064574;28;20067;-56
2022/03/21 08:31:12;;;;;;;45.65;23.20;;;;;;;14.34;100.00;164313.84;5053242;28;20428;-56
2022/03/21 08:33:38;;;;;;;31.52;25.00;;;;;;;14.41;100.00;164332.78;5055256;28;20035;-56
2022/03/21 08:36:03;;;;;;;34.60;23.45;;;;;;;15.15;100.00;164527.72;5062622;28;20041;-56
2022/03/21 08:38:29;;;;;;;32.63;21.92;;;;;;;15.48;100.00;164614.34;5061569;28;20379;-56
2022/03/21 08:40:56;;;;;;;27.20;21.05;;;;;;;15.70;100.00;164671.22;5057311;28;20032;-56
2022/03/21 08:43:22;;;;;;;33.92;21.67;;;;;;;16.30;100.00;164828.34;5065511;28;20040;-56
2022/03/21 08:45:48;;;;;;;26.73;22.50;;;;;;;16.31;100.00;164831.06;5059745;28;20024;-56
2022/03/21 08:48:13;;;;;;;31.83;22.83;;;;;;;16.04;100.00;164760.66;5062154;28;20484;-56
2022/03/21 08:50:39;;;;;;;32.15;24.88;;;;;;;16.42;100.00;164860.84;5067333;28;20031;-56
2022/03/21 08:53:04;;;;;;;27.50;22.60;;;;;;;16.70;100.00;164932.66;5067215;28;20037;-56
2022/03/21 08:55:29;;;;;;;31.48;23.50;;;;;;;16.33;100.00;164836.50;5056328;28;20024;-56
2022/03/21 08:57:55;;;;;;;28.63;22.35;;;;;;;16.22;100.00;164806.69;5062186;28;20040;-56
2022/03/21 09:00:20;;;;;;;27.27;22.42;;;;;;;15.86;100.00;164714.59;5062191;28;20028;-56
2022/03/21 09:02:54;;;;;;;35.60;24.25;;;;;;;16.05;100.00;164763.31;5069254;28;20050;-56
2022/03/21 09:05:20;;;;;;;30.95;23.50;;;;;;;16.07;100.00;164767.44;5064366;28;20032;-56
2022/03/21 09:07:46;;;;;;;33.15;26.33;;;;;;;16.18;100.00;164798.56;5067507;28;20063;-55
2022/03/21 09:10:13;;;;;;;29.75;23.65;;;;;;;15.96;100.00;164739.00;5059683;28;20079;-56
2022/03/21 09:12:38;;;;;;;34.83;24.58;;;;;;;15.07;100.00;164506.09;5066310;28;20498;-56
2022/03/21 09:15:05;;;;;;;30.60;25.50;;;;;;;14.65;100.00;164395.03;5069910;28;20020;-56
2022/03/21 09:17:30;;;;;;;29.95;25.35;;;;;;;14.97;100.00;164479.00;5064878;28;20079;-56
2022/03/21 09:19:56;;;;;;;32.80;26.98;;;;;;;15.31;100.00;164568.31;5061589;28;20360;-55
2022/03/21 09:22:21;;;;;;;33.33;26.35;;;;;;;15.26;100.00;164554.78;5064079;28;20084;-56
2022/03/21 09:24:46;;;;;;;29.60;25.42;;;;;;;15.55;100.00;164631.97;5054544;28;20024;-56
2022/03/21 09:27:12;;;;;;;33.92;24.58;;;;;;;15.43;100.00;164600.84;5065295;28;20044;-56
2022/03/21 09:29:38;;;;;;;28.83;23.50;;;;;;;15.79;100.00;164694.22;5055695;28;20021;-56
2022/03/21 09:32:04;;;;;;;33.42;25.90;;;;;;;16.08;100.00;164770.16;5051431;28;20129;-56
2022/03/21 09:34:31;;;;;;;30.70;25.48;;;;;;;16.24;100.00;164812.09;5043108;28;20017;-56
2022/03/21 09:36:56;;;;;;;29.42;25.92;;;;;;;16.62;100.00;164912.34;5032234;28;20246;-56
2022/03/21 09:39:22;;;;;;;29.70;23.65;;;;;;;16.28;100.00;164824.31;5046787;28;20561;-56
2022/03/21 09:41:48;;;;;;;33.15;24.75;;;;;;;16.47;100.00;164873.03;5042787;28;20040;-56
2022/03/21 09:44:13;;;;;;;31.40;25.73;;;;;;;16.49;100.00;164879.81;5059453;28;20024;-56
2022/03/21 09:46:41;;;;;;;36.97;24.98;;;;;;;16.93;100.00;164993.69;5063485;28;20036;-56
2022/03/21 09:49:11;;;;;;;35.50;23.65;;;;;;;17.01;100.00;165015.38;5053621;28;20029;-56
2022/03/21 09:51:37;;;;;;;33.65;23.65;;;;;;;17.50;100.00;165142.72;5063118;28;20040;-56
2022/03/21 09:54:03;;;;;;;27.42;23.02;;;;;;;17.71;100.00;165199.66;5059441;28;20028;-56
2022/03/21 09:56:29;;;;;;;35.08;23.45;;;;;;;17.11;100.00;165042.44;5055525;28;20037;-56
2022/03/21 09:59:01;;;;;;;37.85;23.45;;;;;;;16.89;100.00;164984.16;5050265;28;20047;-56
2022/03/21 10:01:31;;;;;;;32.22;22.48;;;;;;;17.55;100.00;165157.66;5040526;28;20039;-56
2022/03/21 10:03:57;;;;;;;31.30;24.08;;;;;;;17.96;100.00;165264.78;5065788;28;20124;-56
2022/03/21 10:06:29;;;;;;;32.60;24.00;;;;;;;18.32;100.00;165358.31;5064270;28;20530;-56
2022/03/21 10:09:17;;;;;;;30.30;24.25;;;;;;;18.19;100.00;165324.44;5057970;28;20314;-56
2022/03/21 10:11:50;;;;;;;;;;;;;;;18.71;100.00;165461.38;5046074;28;20434;-57
2022/03/21 10:14:22;;;;;;;35.03;22.65;;;;;;;18.75;100.00;165470.88;5062417;28;20386;-56
2022/03/21 10:16:58;;;;;;;26.63;23.75;;;;;;;18.49;100.00;165403.09;5068065;28;20403;-57
2022/03/21 10:19:24;;;;;;;35.78;25.33;;;;;;;18.33;100.00;165362.41;5041304;28;20573;-57
2022/03/21 10:22:01;;;;;;;28.23;24.25;;;;;;;18.52;100.00;165412.59;5064981;28;20078;-56
2022/03/21 10:24:26;;;;;;;32.13;24.30;;;;;;;18.49;100.00;165404.44;5065970;28;20028;-56
2022/03/21 10:26:53;;;;;;;33.67;24.30;;;;;;;19.05;100.00;165549.59;5049655;28;20417;-56
2022/03/21 10:29:19;;;;;;;31.63;26.02;;;;;;;18.67;100.00;165450.56;5052684;28;20035;-56
2022/03/21 10:31:50;;;;;;;32.97;23.80;;;;;;;19.13;100.00;165571.31;5051492;28;20045;-56
2022/03/21 10:34:17;;;;;;;38.03;26.00;;;;;;;18.86;100.00;165502.06;5047693;28;20033;-57
2022/03/21 10:37:05;;;;;;;28.63;25.08;;;;;;;19.10;100.00;165563.19;5052388;28;20040;-57
2022/03/21 10:39:38;;;;;;;27.05;24.15;;;;;;;18.73;100.00;165465.47;5053807;28;20021;-56
2022/03/21 10:42:05;;;;;;;29.52;24.83;;;;;;;18.41;100.00;165381.38;5052255;28;20037;-57
2022/03/21 10:44:33;;;;;;;31.15;22.05;;;;;;;18.20;100.00;165327.16;5053317;28;20025;-56
2022/03/21 10:47:03;;;;;;;28.92;24.20;;;;;;;17.99;100.00;165271.56;5059914;28;20040;-56
2022/03/21 10:49:32;;;;;;;28.42;22.35;;;;;;;18.22;100.00;165333.94;5073833;28;20405;-56
2022/03/21 10:51:58;;;;;;;32.92;23.30;;;;;;;18.41;100.00;165381.38;5071852;28;20064;-56
2022/03/21 10:54:43;;;;;;;30.77;24.02;;;;;;;18.77;100.00;165477.66;5073279;28;20037;-56
2022/03/21 10:57:33;;;;;;;35.40;25.20;;;;;;;18.47;100.00;165399.00;5044359;28;20037;-56
2022/03/21 11:00:21;;;;;;;39.05;25.58;;;;;;;19.07;100.00;165555.03;5033531;28;20499;-56
2022/03/21 11:03:00;;;;;;;35.67;26.73;;;;;;;18.92;100.00;165517.06;5031824;28;20115;-56
2022/03/21 11:05:29;;;;;;;30.52;23.38;;;;;;;19.18;100.00;165586.22;5051845;28;20139;-56
2022/03/21 11:07:55;;;;;;;35.35;24.15;;;;;;;19.25;100.00;165603.84;5066630;28;20045;-56
2022/03/21 11:10:22;;;;;;;28.85;23.42;;;;;;;19.23;100.00;165597.06;5061592;28;20024;-56
2022/03/21 11:12:48;;;;;;;29.70;24.75;;;;;;;19.32;100.00;165622.84;5053819;28;20090;-57
2022/03/21 11:15:14;;;;;;;26.88;23.83;;;;;;;19.39;100.00;165639.16;5060504;28;20418;-57
2022/03/21 11:17:44;;;;;;;31.50;23.33;;;;;;;19.29;100.00;165614.72;5071475;28;20045;-56
2022/03/21 11:20:11;;;;;;;27.75;21.45;;;;;;;19.15;100.00;165576.75;5072329;28;20032;-56
2022/03/21 11:22:38;;;;;;;41.17;23.77;;;;;;;18.78;100.00;165479.03;5071635;28;20438;-56
2022/03/21 11:25:06;;;;;;;29.85;21.50;;;;;;;18.62;100.00;165438.34;5072944;28;20024;-57
2022/03/21 11:27:49;;;;;;;30.35;23.10;;;;;;;17.77;96.18;165215.91;5071399;28;20060;-57